Perch, North Carolina
Current Conditions -  °F | °C
As of 3:15 PM on Wednesday 26 Nov 2014 (Local Time) from KMWK Reporting Station
Scattered Clouds Scattered Clouds  
Wind Chill: 48°   Ceiling: Unl
Heat Index: 48°   Visibility: 10mi
Dew Point: 40°   Wind: 3mph
Humidity: 75%   Direction: 340°NNW
Pressure: 29.99"   Gusts: NA
Location:  36.3244°N, 80.463°W
Report Text: KMWK 262015Z AUTO 34003KT 10SM SCT020 09/05 A2999 RMK AO2 T00890046
Loading
Personal Weather Stations






























Interactive Weather Map New forecast layout! Learn more

10-Day Weather Forecast

Advertisements
Track Severe Weather on mobile